createdAt,value
2023-05-25T00:03:52.960Z,22.51
2023-05-25T00:08:55.426Z,22.48
2023-05-25T00:13:56.889Z,22.52
2023-05-25T00:18:58.349Z,22.45
2023-05-25T00:24:00.557Z,22.51
2023-05-25T00:29:02.001Z,22.47
2023-05-25T00:34:03.460Z,22.49
2023-05-25T00:39:05.983Z,22.48
2023-05-25T00:44:08.018Z,22.54
2023-05-25T00:49:09.442Z,22.50
2023-05-25T00:54:11.263Z,22.54
2023-05-25T00:59:15.598Z,22.50
2023-05-25T01:04:17.068Z,22.51
2023-05-25T01:09:18.936Z,22.48
2023-05-25T01:14:21.463Z,22.44
2023-05-25T01:19:22.906Z,22.47
2023-05-25T01:24:32.269Z,22.45
2023-05-25T01:29:34.561Z,22.46
2023-05-25T01:34:36.587Z,22.44
2023-05-25T01:39:38.008Z,22.39
2023-05-25T01:44:39.810Z,22.43
2023-05-25T01:49:49.983Z,22.43
2023-05-25T01:55:12.866Z,22.42
2023-05-25T02:00:14.478Z,22.42
2023-05-25T02:05:16.159Z,22.47
2023-05-25T02:10:17.642Z,22.52
2023-05-25T02:15:19.131Z,22.52
2023-05-25T02:20:20.618Z,22.55
2023-05-25T02:25:22.050Z,22.53
2023-05-25T02:30:23.542Z,22.58
2023-05-25T02:35:24.996Z,22.60
2023-05-25T02:40:26.453Z,22.58
2023-05-25T02:45:27.900Z,22.57
2023-05-25T02:50:29.318Z,22.60
2023-05-25T02:55:30.735Z,22.62
2023-05-25T03:00:32.226Z,22.63
2023-05-25T03:05:35.166Z,22.66
2023-05-25T03:10:36.608Z,22.65
2023-05-25T03:15:40.001Z,22.66
2023-05-25T03:20:41.606Z,22.63
2023-05-25T03:25:43.426Z,22.65
2023-05-25T03:30:45.850Z,22.68
2023-05-25T03:35:47.347Z,22.65
2023-05-25T03:40:48.824Z,22.69
2023-05-25T03:45:50.368Z,22.65
2023-05-25T03:50:51.903Z,22.67
2023-05-25T03:55:53.424Z,22.69
2023-05-25T04:00:56.189Z,22.71
2023-05-25T04:05:58.923Z,22.69
2023-05-25T04:11:00.429Z,22.71
2023-05-25T04:16:02.022Z,22.73
2023-05-25T04:21:03.634Z,22.73
2023-05-25T04:26:06.005Z,22.76
2023-05-25T04:31:07.937Z,22.76
2023-05-25T04:36:10.826Z,22.73
2023-05-25T04:41:12.240Z,22.73
2023-05-25T04:46:13.960Z,22.76
2023-05-25T04:51:16.088Z,22.77
2023-05-25T04:56:17.589Z,22.81
2023-05-25T05:01:20.518Z,22.82
2023-05-25T05:06:22.583Z,22.81
2023-05-25T05:11:24.016Z,22.80
2023-05-25T05:16:25.461Z,22.81
2023-05-25T05:21:26.988Z,22.82
2023-05-25T05:26:28.683Z,22.91
2023-05-25T05:31:31.487Z,22.85
2023-05-25T05:36:45.098Z,22.88
2023-05-25T05:41:54.551Z,22.87
2023-05-25T05:47:00.117Z,22.88
2023-05-25T05:52:02.977Z,22.90
2023-05-25T05:57:04.511Z,22.87
2023-05-25T06:02:07.399Z,22.85
2023-05-25T06:07:08.860Z,22.89
2023-05-25T06:12:10.374Z,22.93
2023-05-25T06:17:11.858Z,22.95
2023-05-25T06:22:13.355Z,23.01
2023-05-25T06:27:14.775Z,23.04
2023-05-25T06:32:16.567Z,23.13
2023-05-25T06:37:18.125Z,23.17
2023-05-25T06:42:19.563Z,23.23
2023-05-25T06:47:21.126Z,23.26
2023-05-25T06:52:22.655Z,23.30
2023-05-25T06:57:24.130Z,23.38
2023-05-25T07:02:25.621Z,23.40
2023-05-25T07:07:27.100Z,23.37
2023-05-25T07:12:28.514Z,23.42
2023-05-25T07:17:31.266Z,23.43
2023-05-25T07:22:32.850Z,23.41
2023-05-25T07:27:34.354Z,23.41
2023-05-25T07:32:35.961Z,23.43
2023-05-25T07:37:37.392Z,23.39
2023-05-25T07:42:38.879Z,23.38
2023-05-25T07:47:40.452Z,23.32
2023-05-25T07:52:42.119Z,23.30
2023-05-25T07:57:43.891Z,23.31
2023-05-25T08:02:45.548Z,23.30
2023-05-25T08:07:47.105Z,23.26
2023-05-25T08:12:50.647Z,23.25
2023-05-25T08:17:53.342Z,23.24
2023-05-25T08:22:54.874Z,23.25
2023-05-25T08:27:56.346Z,23.25
2023-05-25T08:32:57.877Z,23.21
2023-05-25T08:37:59.337Z,23.22
2023-05-25T08:43:00.796Z,23.25
2023-05-25T08:48:02.552Z,23.23
2023-05-25T08:53:05.638Z,23.21
2023-05-25T08:58:17.500Z,23.22
2023-05-25T09:03:19.090Z,23.20
2023-05-25T09:08:20.579Z,23.22
2023-05-25T09:13:23.117Z,23.22
2023-05-25T09:18:24.819Z,23.23
2023-05-25T09:23:26.352Z,23.20
2023-05-25T09:28:28.007Z,23.14
2023-05-25T09:33:29.544Z,23.16
2023-05-25T09:38:31.442Z,23.21
2023-05-25T09:48:41.882Z,23.24
2023-05-25T09:53:43.322Z,23.22
2023-05-25T09:58:45.341Z,23.20
2023-05-25T10:03:59.808Z,23.17
2023-05-25T10:09:06.403Z,23.17
2023-05-25T10:14:07.885Z,23.21
2023-05-25T10:19:21.892Z,23.23
2023-05-25T10:24:34.530Z,23.20
2023-05-25T10:29:36.022Z,23.19
2023-05-25T10:34:37.461Z,23.16
2023-05-25T10:39:38.891Z,23.15
2023-05-25T10:44:41.458Z,23.17
2023-05-25T10:50:38.720Z,23.25
2023-05-25T10:55:52.476Z,23.17
2023-05-25T11:01:06.856Z,23.23
2023-05-25T11:06:10.333Z,23.23
2023-05-25T11:11:11.777Z,23.24
2023-05-25T11:16:13.619Z,23.25
2023-05-25T11:21:27.250Z,23.26
2023-05-25T11:26:33.345Z,23.25
2023-05-25T11:31:40.610Z,23.24
2023-05-25T11:36:44.616Z,23.19
2023-05-25T11:41:55.424Z,23.19
2023-05-25T11:46:57.609Z,23.16
2023-05-25T11:51:59.246Z,23.18
2023-05-25T11:57:01.395Z,23.20
2023-05-25T12:02:03.412Z,23.21
2023-05-25T12:07:05.911Z,23.23
2023-05-25T12:12:07.414Z,23.22
2023-05-25T12:17:08.940Z,23.22
2023-05-25T12:22:11.555Z,23.23
2023-05-25T12:27:20.431Z,23.21
2023-05-25T12:32:21.909Z,23.22
2023-05-25T12:37:23.412Z,23.30
2023-05-25T12:42:27.560Z,23.35
2023-05-25T12:47:30.320Z,23.34
2023-05-25T12:52:36.694Z,23.30
2023-05-25T12:57:38.243Z,23.36
2023-05-25T13:02:44.232Z,23.42
2023-05-25T13:07:45.773Z,23.44
2023-05-25T13:12:47.695Z,23.46
2023-05-25T13:17:50.370Z,23.49
2023-05-25T13:22:52.527Z,23.52
2023-05-25T13:27:54.891Z,23.51
2023-05-25T13:32:56.387Z,23.43
2023-05-25T13:37:58.668Z,23.38
2023-05-25T13:43:00.129Z,23.37
2023-05-25T13:48:01.707Z,23.33
2023-05-25T13:53:03.242Z,23.30
2023-05-25T13:58:04.663Z,23.33
2023-05-25T14:03:06.837Z,23.23
2023-05-25T14:08:08.400Z,23.22
2023-05-25T14:13:09.901Z,23.18
2023-05-25T14:18:11.393Z,23.15
2023-05-25T14:23:15.110Z,23.16
2023-05-25T14:28:17.405Z,23.20
2023-05-25T14:33:19.089Z,23.23
2023-05-25T14:38:20.576Z,23.24
2023-05-25T14:43:22.011Z,23.24
2023-05-25T14:48:25.382Z,23.33
2023-05-25T14:53:27.138Z,23.30
2023-05-25T14:58:28.869Z,23.36
2023-05-25T15:03:30.480Z,23.24
2023-05-25T15:08:31.949Z,23.17
2023-05-25T15:13:33.420Z,23.25
2023-05-25T15:18:34.865Z,23.17
2023-05-25T15:23:36.511Z,23.22
2023-05-25T15:28:38.074Z,23.23
2023-05-25T15:33:51.991Z,23.23
2023-05-25T15:38:57.966Z,23.25
2023-05-25T15:44:01.077Z,23.23
2023-05-25T15:49:02.583Z,23.24
2023-05-25T15:54:04.031Z,23.24
2023-05-25T15:59:05.599Z,23.25
2023-05-25T16:04:07.166Z,23.25
2023-05-25T16:09:08.735Z,23.20
2023-05-25T16:14:10.257Z,23.21
2023-05-25T16:19:13.853Z,23.17
2023-05-25T16:24:15.772Z,23.20
2023-05-25T16:29:17.251Z,23.17
2023-05-25T16:34:18.690Z,23.14
2023-05-25T16:39:20.122Z,23.19
2023-05-25T16:44:21.550Z,23.16
2023-05-25T16:49:22.984Z,23.05
2023-05-25T16:54:24.401Z,23.09
2023-05-25T16:59:25.860Z,23.04
2023-05-25T17:04:27.325Z,23.05
2023-05-25T17:09:28.745Z,23.05
2023-05-25T17:14:30.280Z,23.02
2023-05-25T17:19:31.751Z,23.02
2023-05-25T17:24:33.200Z,23.01
2023-05-25T17:29:34.648Z,23.05
2023-05-25T17:34:36.089Z,22.96
2023-05-25T17:39:37.527Z,22.82
2023-05-25T17:44:41.375Z,22.85
2023-05-25T17:49:42.850Z,22.92
2023-05-25T17:54:44.277Z,22.90
2023-05-25T17:59:45.902Z,22.78
2023-05-25T18:04:47.373Z,22.80
2023-05-25T18:09:48.813Z,22.82
2023-05-25T18:14:50.650Z,22.82
2023-05-25T18:19:52.159Z,22.73
2023-05-25T18:24:53.586Z,22.74
2023-05-25T18:29:55.084Z,22.74
2023-05-25T18:34:57.336Z,22.65
2023-05-25T18:39:58.935Z,22.63
2023-05-25T18:45:01.304Z,22.60
2023-05-25T18:50:03.061Z,22.63
2023-05-25T18:55:05.792Z,22.57
2023-05-25T19:00:08.733Z,22.45
2023-05-25T19:05:14.995Z,22.46
2023-05-25T19:10:16.537Z,22.42
2023-05-25T19:15:18.090Z,22.43
2023-05-25T19:20:19.660Z,22.41
2023-05-25T19:25:21.186Z,22.47
2023-05-25T19:30:22.657Z,22.42
2023-05-25T19:35:24.077Z,22.38
2023-05-25T19:40:25.523Z,22.39
2023-05-25T19:45:27.015Z,22.38
2023-05-25T19:50:30.527Z,22.37
2023-05-25T19:55:32.170Z,22.38
2023-05-25T20:00:33.589Z,22.42
2023-05-25T20:05:35.063Z,22.34
2023-05-25T20:10:39.739Z,22.37
2023-05-25T20:15:41.267Z,22.41
2023-05-25T20:20:42.950Z,22.57
2023-05-25T20:25:44.570Z,22.65
2023-05-25T20:30:46.198Z,22.66
2023-05-25T20:35:49.658Z,22.60
2023-05-25T20:40:51.112Z,22.59
2023-05-25T20:45:52.612Z,22.71
2023-05-25T20:50:54.066Z,22.68
2023-05-25T20:55:56.910Z,22.70
2023-05-25T21:00:58.352Z,22.58
2023-05-25T21:05:59.788Z,22.65
2023-05-25T21:11:01.233Z,22.70
2023-05-25T21:16:02.720Z,22.69
2023-05-25T21:21:05.380Z,22.63
2023-05-25T21:26:06.895Z,22.60
2023-05-25T21:31:08.402Z,22.69
2023-05-25T21:36:09.845Z,22.58
2023-05-25T21:41:11.281Z,22.58
2023-05-25T21:46:12.706Z,22.63
2023-05-25T21:51:14.112Z,22.64
2023-05-25T21:56:15.564Z,22.59
2023-05-25T22:01:17.116Z,22.60
2023-05-25T22:06:18.591Z,22.62
2023-05-25T22:11:21.932Z,22.61
2023-05-25T22:16:23.409Z,22.58
2023-05-25T22:21:24.853Z,22.59
2023-05-25T22:26:27.384Z,22.62
2023-05-25T22:31:28.959Z,22.57
2023-05-25T22:36:30.603Z,22.58
2023-05-25T22:41:32.021Z,22.61
2023-05-25T22:46:33.490Z,22.60
2023-05-25T22:51:34.932Z,22.56
2023-05-25T22:56:38.857Z,22.59
2023-05-25T23:01:40.304Z,22.58
2023-05-25T23:06:41.892Z,22.55
2023-05-25T23:11:43.370Z,22.55
2023-05-25T23:16:48.256Z,22.56
2023-05-25T23:21:49.854Z,22.54
2023-05-25T23:26:51.666Z,22.59
2023-05-25T23:31:53.229Z,22.47
2023-05-25T23:36:54.764Z,22.52
2023-05-25T23:41:56.401Z,22.57
2023-05-25T23:46:57.833Z,22.57
2023-05-25T23:51:59.282Z,22.53
2023-05-25T23:57:01.091Z,22.48
